Overview Statistics Trail Chart Weather Telemetry Raw packets
 

This is the latest recevied weather packets stored in our database for station/object WX5RP. If no packets are shown the sender has not sent any weather packets the latest 10 day(s).

<< 46 47 48 49 50 51 52 >>
Time Temp. Humidity Pressure Rain* Wind** Luminosity Snow
1777276516 -2.22° C 75% 1013.6 hPa 0 mm - 0 W/m² -
1777275916 -2.22° C 73% 1013.2 hPa 0 mm - 0 W/m² -
1777275316 -2.22° C 73% 1013.1 hPa 0 mm - 0 W/m² -
1777274716 -2.22° C 72% 1013 hPa 0 mm - 0 W/m² -
1777274116 -1.67° C 72% 1013 hPa 0 mm - 0 W/m² -
1777273516 -1.11° C 70% 1013.2 hPa 0 mm - 0 W/m² -
1777272916 -1.11° C 69% 1012.6 hPa 0 mm - 0 W/m² -
1777272315 -1.11° C 70% 1012.6 hPa 0 mm - 0 W/m² -
1777271717 -1.11° C 69% 1012.8 hPa 0 mm - 0 W/m² -
1777271115 -0.56° C 69% 1013 hPa 0 mm - 0 W/m² -
1777270515 -0.56° C 69% 1012.7 hPa 0 mm - 0 W/m² -
1777269915 -1.11° C 69% 1012.4 hPa 0 mm - 0 W/m² -
1777269316 -1.11° C 68% 1012.6 hPa 0 mm - 0 W/m² -
1777268716 -1.11° C 67% 1012.3 hPa 0 mm - 0 W/m² -
1777268116 -1.67° C 64% 1012 hPa 0 mm - 0 W/m² -
1777267515 0° C 56% 1012 hPa 0 mm - 0 W/m² -
1777266915 1.11° C 56% 1012 hPa 0 mm - 0 W/m² -
1777266316 1.67° C 53% 1012.1 hPa 0 mm - 0 W/m² -
1777265716 2.22° C 55% 1011.5 hPa 0 mm - 0 W/m² -
1777265116 2.78° C 53% 1011.5 hPa 0 mm - 0 W/m² -
1777264516 2.78° C 53% 1011.4 hPa 0 mm - 0 W/m² -
1777263916 3.33° C 51% 1011.3 hPa 0 mm - 0 W/m² -
1777263316 3.33° C 51% 1011 hPa 0 mm - 0 W/m² -
1777262716 2.22° C 52% 1011.5 hPa 0 mm - 0 W/m² -
1777262116 3.33° C 49% 1010.8 hPa 0 mm - 0 W/m² -

* Rain latest hour (hover to see other rain measurements)
** Current wind speed in m/s (hover to see current wind gust speed)